Terminal Aerodrome Forecast
Issued by NWS Tampa Bay Area, FL

Home | Current Version | Previous Version | Text Only | Print | Product List | Glossary On
Versions: 1 2 3 4 5 6 7 8 9 10 11 12 13 14 15 16 17 18 19 20 21 22 23 24 25 26 27 28 29
114
FTUS42 KTBW 180900 AAA
TAFTPA
TAF AMD
KTPA 180900Z 1809/1912 VRB03KT P6SM SKC
     FM181000 VRB03KT 6SM BR SCT010
     FM181200 VRB03KT 3/4SM BR BKN004
     FM181500 16004KT P6SM FEW025 SCT150
     FM181800 26007KT P6SM SCT040 SCT250
     FM190200 VRB03KT P6SM FEW070=

USA.gov is the U.S. government's official web portal to all federal, state and local government web resources and services.